N21DC KPDK-KJQF
Flight info
| Callsign | N21DC |
|---|---|
| Flight time | 1h 20m |
| Altitude | 7000 |
| Route | LOGEN T414 MILBY T484 BURGG T398 CRLNA |
| Aircraft | S22T/L-G/S |
Departure
| Time | 2026-05-06 23:36 |
|---|---|
| Airport | DeKalb Peachtree Airport (KPDK) |
Arrival
| Time | 2026-05-07 00:56 |
|---|---|
| Airport | Concord-Padgett Regional Airport (KJQF) |
| Time | Latitude | Longitude | Altitude | Speed | Heading |
|---|---|---|---|---|---|
| 2026-05-06 23:04 | 33.88332 | -84.30364 | 1002 ft | 0 kts | 1° |
| 2026-05-06 23:08 | 33.88333 | -84.30364 | 1002 ft | 0 kts | 1° |
| 2026-05-06 23:24 | 33.88336 | -84.30363 | 1002 ft | 3 kts | 20° |
| 2026-05-06 23:24 | 33.88351 | -84.30367 | 1002 ft | 0 kts | 278° |
| 2026-05-06 23:28 | 33.88350 | -84.30374 | 1002 ft | 2 kts | 260° |
| 2026-05-06 23:28 | 33.88348 | -84.30390 | 1003 ft | 2 kts | 259° |
| 2026-05-06 23:28 | 33.88346 | -84.30406 | 1003 ft | 2 kts | 257° |
| 2026-05-06 23:28 | 33.88311 | -84.30432 | 1002 ft | 9 kts | 192° |
| 2026-05-06 23:29 | 33.88226 | -84.30424 | 1001 ft | 15 kts | 162° |
| 2026-05-06 23:29 | 33.88152 | -84.30386 | 998 ft | 0 kts | 155° |
| 2026-05-06 23:29 | 33.88150 | -84.30385 | 998 ft | 0 kts | 161° |
| 2026-05-06 23:30 | 33.88129 | -84.30375 | 997 ft | 10 kts | 149° |
| 2026-05-06 23:30 | 33.88043 | -84.30331 | 994 ft | 12 kts | 155° |
| 2026-05-06 23:30 | 33.88016 | -84.30270 | 992 ft | 13 kts | 95° |
| 2026-05-06 23:30 | 33.87994 | -84.30171 | 988 ft | 0 kts | 130° |
| 2026-05-06 23:31 | 33.87993 | -84.30164 | 992 ft | 6 kts | 83° |
| 2026-05-06 23:31 | 33.88064 | -84.30125 | 990 ft | 17 kts | 19° |
| 2026-05-06 23:31 | 33.88190 | -84.30067 | 990 ft | 20 kts | 24° |
| 2026-05-06 23:31 | 33.88339 | -84.29998 | 986 ft | 25 kts | 19° |
| 2026-05-06 23:32 | 33.88458 | -84.29930 | 987 ft | 13 kts | 74° |
| 2026-05-06 23:32 | 33.88436 | -84.29834 | 983 ft | 15 kts | 108° |
| 2026-05-06 23:32 | 33.88426 | -84.29799 | 983 ft | 0 kts | 111° |
| 2026-05-06 23:34 | 33.88425 | -84.29796 | 983 ft | 3 kts | 111° |
| 2026-05-06 23:34 | 33.88386 | -84.29719 | 985 ft | 14 kts | 178° |
| 2026-05-06 23:35 | 33.88232 | -84.29785 | 986 ft | 50 kts | 200° |
| 2026-05-06 23:35 | 33.87750 | -84.29994 | 1021 ft | 92 kts | 204° |
| 2026-05-06 23:35 | 33.87143 | -84.30206 | 1329 ft | 92 kts | 188° |
| 2026-05-06 23:35 | 33.86586 | -84.29773 | 1600 ft | 113 kts | 109° |
| 2026-05-06 23:36 | 33.86679 | -84.28838 | 1959 ft | 113 kts | 85° |
| 2026-05-06 23:36 | 33.86847 | -84.27913 | 2361 ft | 114 kts | 84° |
| 2026-05-06 23:36 | 33.87033 | -84.26978 | 2702 ft | 116 kts | 83° |
| 2026-05-06 23:36 | 33.87205 | -84.26013 | 3007 ft | 125 kts | 84° |
| 2026-05-06 23:37 | 33.87376 | -84.24913 | 3022 ft | 140 kts | 85° |
| 2026-05-06 23:37 | 33.87553 | -84.23769 | 3319 ft | 137 kts | 84° |
| 2026-05-06 23:37 | 33.87734 | -84.22652 | 3673 ft | 137 kts | 84° |
| 2026-05-06 23:37 | 33.87916 | -84.21536 | 4006 ft | 138 kts | 84° |
| 2026-05-06 23:38 | 33.88105 | -84.20394 | 4351 ft | 141 kts | 84° |
| 2026-05-06 23:38 | 33.88298 | -84.19226 | 4706 ft | 143 kts | 84° |
| 2026-05-06 23:38 | 33.88485 | -84.18052 | 5010 ft | 148 kts | 84° |
| 2026-05-06 23:38 | 33.88686 | -84.16740 | 5029 ft | 169 kts | 84° |
| 2026-05-06 23:39 | 33.88890 | -84.15305 | 5027 ft | 179 kts | 84° |
| 2026-05-06 23:39 | 33.89100 | -84.13802 | 5024 ft | 184 kts | 84° |
| 2026-05-06 23:39 | 33.89316 | -84.12252 | 5025 ft | 187 kts | 84° |
| 2026-05-06 23:39 | 33.89532 | -84.10699 | 5001 ft | 189 kts | 84° |
| 2026-05-06 23:40 | 33.89748 | -84.09149 | 5002 ft | 191 kts | 84° |
| 2026-05-06 23:40 | 33.89969 | -84.07571 | 4999 ft | 192 kts | 84° |
| 2026-05-06 23:40 | 33.90196 | -84.05964 | 5000 ft | 193 kts | 84° |
| 2026-05-06 23:40 | 33.90416 | -84.04393 | 4996 ft | 193 kts | 84° |
| 2026-05-06 23:41 | 33.90638 | -84.02796 | 4994 ft | 194 kts | 84° |
| 2026-05-06 23:41 | 33.90860 | -84.01201 | 5000 ft | 194 kts | 84° |
| 2026-05-06 23:41 | 33.91091 | -83.99605 | 4998 ft | 193 kts | 84° |
| 2026-05-06 23:41 | 33.91320 | -83.98010 | 4995 ft | 194 kts | 84° |
| 2026-05-06 23:42 | 33.91545 | -83.96421 | 5048 ft | 192 kts | 84° |
| 2026-05-06 23:42 | 33.91768 | -83.94835 | 5142 ft | 192 kts | 84° |
| 2026-05-06 23:42 | 33.91990 | -83.93296 | 5423 ft | 182 kts | 83° |
| 2026-05-06 23:42 | 33.92200 | -83.91816 | 5703 ft | 177 kts | 83° |
| 2026-05-06 23:43 | 33.92401 | -83.90372 | 5978 ft | 173 kts | 84° |
| 2026-05-06 23:43 | 33.92608 | -83.88953 | 6276 ft | 171 kts | 84° |
| 2026-05-06 23:43 | 33.92813 | -83.87570 | 6550 ft | 170 kts | 83° |
| 2026-05-06 23:43 | 33.93014 | -83.86165 | 6821 ft | 170 kts | 83° |
| 2026-05-06 23:44 | 33.93205 | -83.84741 | 6989 ft | 179 kts | 84° |
| 2026-05-06 23:44 | 33.93402 | -83.83201 | 7001 ft | 191 kts | 84° |
| 2026-05-06 23:44 | 33.93606 | -83.81597 | 7002 ft | 198 kts | 84° |
| 2026-05-06 23:44 | 33.93815 | -83.79941 | 7023 ft | 202 kts | 84° |
| 2026-05-06 23:45 | 33.94025 | -83.78247 | 7021 ft | 206 kts | 84° |
| 2026-05-06 23:45 | 33.94238 | -83.76532 | 7019 ft | 208 kts | 84° |
| 2026-05-06 23:45 | 33.94450 | -83.74799 | 7021 ft | 210 kts | 84° |
| 2026-05-06 23:45 | 33.94661 | -83.73089 | 7014 ft | 210 kts | 84° |
| 2026-05-06 23:46 | 33.94878 | -83.71347 | 7013 ft | 210 kts | 84° |
| 2026-05-06 23:46 | 33.95095 | -83.69603 | 7019 ft | 211 kts | 84° |
| 2026-05-06 23:46 | 33.95422 | -83.67887 | 7012 ft | 212 kts | 65° |
| 2026-05-06 23:46 | 33.96412 | -83.66628 | 7000 ft | 207 kts | 24° |
| 2026-05-06 23:47 | 33.97763 | -83.66351 | 7000 ft | 192 kts | 342° |
| 2026-05-06 23:47 | 33.98973 | -83.66896 | 7007 ft | 185 kts | 328° |
| 2026-05-06 23:47 | 34.00233 | -83.67305 | 7004 ft | 193 kts | 345° |
| 2026-05-06 23:47 | 34.01587 | -83.67379 | 7008 ft | 196 kts | 351° |
| 2026-05-06 23:48 | 34.02952 | -83.67412 | 7013 ft | 196 kts | 349° |
| 2026-05-06 23:48 | 34.04305 | -83.67472 | 7012 ft | 194 kts | 349° |
| 2026-05-06 23:48 | 34.05650 | -83.67539 | 7010 ft | 193 kts | 350° |
| 2026-05-06 23:48 | 34.06998 | -83.67605 | 7001 ft | 194 kts | 349° |
| 2026-05-06 23:49 | 34.08354 | -83.67671 | 7009 ft | 195 kts | 350° |
| 2026-05-06 23:49 | 34.09716 | -83.67734 | 7005 ft | 196 kts | 349° |
| 2026-05-06 23:49 | 34.11056 | -83.67797 | 6987 ft | 195 kts | 349° |
| 2026-05-06 23:49 | 34.12412 | -83.67862 | 6981 ft | 195 kts | 349° |
| 2026-05-06 23:50 | 34.13768 | -83.67928 | 6989 ft | 195 kts | 349° |
| 2026-05-06 23:50 | 34.16489 | -83.68058 | 6986 ft | 196 kts | 350° |
| 2026-05-06 23:50 | 34.17851 | -83.68123 | 6989 ft | 195 kts | 349° |
| 2026-05-06 23:51 | 34.19208 | -83.68187 | 6986 ft | 195 kts | 349° |
| 2026-05-06 23:51 | 34.20563 | -83.68253 | 6991 ft | 195 kts | 350° |
| 2026-05-06 23:51 | 34.21921 | -83.68318 | 6990 ft | 195 kts | 349° |
| 2026-05-06 23:51 | 34.23276 | -83.68383 | 6988 ft | 195 kts | 349° |
| 2026-05-06 23:52 | 34.24627 | -83.68450 | 6987 ft | 194 kts | 350° |
| 2026-05-06 23:52 | 34.25964 | -83.68512 | 7072 ft | 195 kts | 350° |
| 2026-05-06 23:52 | 34.27321 | -83.68577 | 7073 ft | 195 kts | 350° |
| 2026-05-06 23:52 | 34.28673 | -83.68642 | 7075 ft | 195 kts | 350° |
| 2026-05-06 23:53 | 34.30016 | -83.68707 | 7075 ft | 194 kts | 349° |
| 2026-05-06 23:53 | 34.31376 | -83.68772 | 7072 ft | 194 kts | 349° |
| 2026-05-06 23:53 | 34.32735 | -83.68699 | 7050 ft | 201 kts | 5° |
| 2026-05-06 23:53 | 34.34039 | -83.68047 | 7043 ft | 206 kts | 26° |
| 2026-05-06 23:54 | 34.35147 | -83.66926 | 7046 ft | 208 kts | 39° |
| 2026-05-06 23:54 | 34.36230 | -83.65756 | 6999 ft | 209 kts | 37° |
| 2026-05-06 23:54 | 34.37325 | -83.64599 | 6998 ft | 209 kts | 38° |
| 2026-05-06 23:54 | 34.38409 | -83.63436 | 6995 ft | 208 kts | 38° |
| 2026-05-06 23:55 | 34.39491 | -83.62273 | 6999 ft | 208 kts | 38° |
| 2026-05-06 23:55 | 34.40576 | -83.61107 | 7000 ft | 208 kts | 37° |
| 2026-05-06 23:55 | 34.41655 | -83.59945 | 7003 ft | 208 kts | 37° |
| 2026-05-06 23:55 | 34.42746 | -83.58773 | 7004 ft | 210 kts | 38° |
| 2026-05-06 23:56 | 34.43839 | -83.57595 | 6995 ft | 211 kts | 37° |
| 2026-05-06 23:56 | 34.44931 | -83.56421 | 7000 ft | 210 kts | 37° |
| 2026-05-06 23:56 | 34.46023 | -83.55246 | 7003 ft | 210 kts | 38° |
| 2026-05-06 23:56 | 34.47116 | -83.54075 | 7003 ft | 211 kts | 37° |
| 2026-05-06 23:57 | 34.48217 | -83.52895 | 7000 ft | 211 kts | 37° |
| 2026-05-06 23:57 | 34.49310 | -83.51725 | 7005 ft | 211 kts | 37° |
| 2026-05-06 23:57 | 34.50410 | -83.50544 | 6993 ft | 210 kts | 37° |
| 2026-05-06 23:57 | 34.51497 | -83.49375 | 7001 ft | 210 kts | 37° |
| 2026-05-06 23:58 | 34.52591 | -83.48202 | 7004 ft | 210 kts | 37° |
| 2026-05-06 23:58 | 34.53683 | -83.47030 | 7002 ft | 209 kts | 37° |
| 2026-05-06 23:58 | 34.54756 | -83.45877 | 7003 ft | 208 kts | 37° |
| 2026-05-06 23:58 | 34.55839 | -83.44715 | 6995 ft | 207 kts | 37° |
| 2026-05-06 23:59 | 34.56918 | -83.43555 | 7025 ft | 207 kts | 38° |
| 2026-05-06 23:59 | 34.57992 | -83.42400 | 7027 ft | 206 kts | 37° |
| 2026-05-06 23:59 | 34.59065 | -83.41246 | 7026 ft | 207 kts | 37° |
| 2026-05-06 23:59 | 34.60146 | -83.40084 | 7019 ft | 207 kts | 37° |
| 2026-05-07 00:00 | 34.61206 | -83.38933 | 7014 ft | 201 kts | 37° |
| 2026-05-07 00:00 | 34.62235 | -83.37828 | 7021 ft | 201 kts | 38° |
| 2026-05-07 00:00 | 34.63296 | -83.36686 | 7018 ft | 200 kts | 37° |
| 2026-05-07 00:00 | 34.64329 | -83.35574 | 7019 ft | 199 kts | 37° |
| 2026-05-07 00:01 | 34.65361 | -83.34465 | 7023 ft | 198 kts | 38° |
| 2026-05-07 00:01 | 34.66394 | -83.33349 | 7018 ft | 198 kts | 37° |
| 2026-05-07 00:01 | 34.67413 | -83.32249 | 7033 ft | 195 kts | 36° |
| 2026-05-07 00:01 | 34.68338 | -83.31024 | 7017 ft | 202 kts | 56° |
| 2026-05-07 00:02 | 34.68856 | -83.29452 | 7018 ft | 204 kts | 73° |
| 2026-05-07 00:02 | 34.69272 | -83.27801 | 7022 ft | 204 kts | 72° |
| 2026-05-07 00:02 | 34.69700 | -83.26155 | 7016 ft | 205 kts | 72° |
| 2026-05-07 00:02 | 34.70129 | -83.24502 | 7019 ft | 205 kts | 72° |
| 2026-05-07 00:03 | 34.70557 | -83.22850 | 7025 ft | 205 kts | 72° |
| 2026-05-07 00:03 | 34.70984 | -83.21195 | 7022 ft | 205 kts | 72° |
| 2026-05-07 00:03 | 34.71409 | -83.19550 | 6994 ft | 204 kts | 72° |
| 2026-05-07 00:03 | 34.71833 | -83.17904 | 6991 ft | 205 kts | 72° |
| 2026-05-07 00:04 | 34.72260 | -83.16249 | 6995 ft | 206 kts | 72° |
| 2026-05-07 00:04 | 34.72686 | -83.14589 | 6994 ft | 205 kts | 72° |
| 2026-05-07 00:04 | 34.73112 | -83.12937 | 6992 ft | 205 kts | 71° |
| 2026-05-07 00:04 | 34.73540 | -83.11279 | 7002 ft | 206 kts | 71° |
| 2026-05-07 00:05 | 34.73961 | -83.09638 | 6996 ft | 206 kts | 72° |
| 2026-05-07 00:05 | 34.74389 | -83.07972 | 7008 ft | 207 kts | 72° |
| 2026-05-07 00:05 | 34.74819 | -83.06298 | 7009 ft | 208 kts | 72° |
| 2026-05-07 00:05 | 34.75250 | -83.04618 | 7017 ft | 208 kts | 72° |
| 2026-05-07 00:06 | 34.75681 | -83.02937 | 7016 ft | 208 kts | 72° |
| 2026-05-07 00:06 | 34.76111 | -83.01259 | 7016 ft | 208 kts | 72° |
| 2026-05-07 00:06 | 34.76541 | -82.99579 | 7017 ft | 208 kts | 72° |
| 2026-05-07 00:06 | 34.76971 | -82.97901 | 7016 ft | 208 kts | 72° |
| 2026-05-07 00:07 | 34.77402 | -82.96218 | 7021 ft | 208 kts | 72° |
| 2026-05-07 00:07 | 34.77834 | -82.94523 | 7018 ft | 209 kts | 72° |
| 2026-05-07 00:07 | 34.78264 | -82.92841 | 7025 ft | 209 kts | 72° |
| 2026-05-07 00:07 | 34.78697 | -82.91151 | 7020 ft | 209 kts | 72° |
| 2026-05-07 00:08 | 34.79127 | -82.89462 | 7019 ft | 209 kts | 72° |
| 2026-05-07 00:08 | 34.79558 | -82.87762 | 6966 ft | 211 kts | 72° |
| 2026-05-07 00:08 | 34.79991 | -82.86062 | 6972 ft | 210 kts | 72° |
| 2026-05-07 00:08 | 34.80426 | -82.84363 | 6976 ft | 210 kts | 72° |
| 2026-05-07 00:09 | 34.80857 | -82.82673 | 6981 ft | 209 kts | 72° |
| 2026-05-07 00:09 | 34.81280 | -82.81010 | 6980 ft | 209 kts | 72° |
| 2026-05-07 00:09 | 34.81708 | -82.79321 | 6980 ft | 209 kts | 72° |
| 2026-05-07 00:09 | 34.82137 | -82.77635 | 6977 ft | 208 kts | 72° |
| 2026-05-07 00:10 | 34.82565 | -82.75956 | 6978 ft | 208 kts | 72° |
| 2026-05-07 00:10 | 34.82992 | -82.74270 | 6981 ft | 209 kts | 72° |
| 2026-05-07 00:10 | 34.83420 | -82.72581 | 6977 ft | 209 kts | 73° |
| 2026-05-07 00:10 | 34.83846 | -82.70898 | 6974 ft | 208 kts | 73° |
| 2026-05-07 00:11 | 34.84272 | -82.69216 | 6976 ft | 208 kts | 72° |
| 2026-05-07 00:11 | 34.84698 | -82.67530 | 6973 ft | 208 kts | 72° |
| 2026-05-07 00:11 | 34.85124 | -82.65845 | 6979 ft | 208 kts | 72° |
| 2026-05-07 00:11 | 34.85551 | -82.64158 | 6975 ft | 208 kts | 72° |
| 2026-05-07 00:12 | 34.85976 | -82.62470 | 6975 ft | 209 kts | 72° |
| 2026-05-07 00:12 | 34.86404 | -82.60779 | 6975 ft | 209 kts | 72° |
| 2026-05-07 00:12 | 34.86823 | -82.59112 | 6972 ft | 209 kts | 72° |
| 2026-05-07 00:12 | 34.87249 | -82.57426 | 6969 ft | 209 kts | 73° |
| 2026-05-07 00:13 | 34.87676 | -82.55731 | 6970 ft | 209 kts | 73° |
| 2026-05-07 00:13 | 34.88101 | -82.54040 | 6971 ft | 209 kts | 73° |
| 2026-05-07 00:13 | 34.88528 | -82.52344 | 6987 ft | 210 kts | 73° |
| 2026-05-07 00:13 | 34.88964 | -82.50609 | 6989 ft | 209 kts | 73° |
| 2026-05-07 00:14 | 34.89380 | -82.48954 | 6993 ft | 209 kts | 73° |
| 2026-05-07 00:14 | 34.89807 | -82.47255 | 6992 ft | 210 kts | 73° |
| 2026-05-07 00:14 | 34.90235 | -82.45547 | 6993 ft | 211 kts | 73° |
| 2026-05-07 00:14 | 34.90665 | -82.43833 | 6995 ft | 211 kts | 73° |
| 2026-05-07 00:15 | 34.91093 | -82.42124 | 6999 ft | 211 kts | 73° |
| 2026-05-07 00:15 | 34.91521 | -82.40416 | 6997 ft | 211 kts | 73° |
| 2026-05-07 00:15 | 34.91951 | -82.38696 | 6992 ft | 213 kts | 74° |
| 2026-05-07 00:15 | 34.92381 | -82.36977 | 6992 ft | 212 kts | 73° |
| 2026-05-07 00:16 | 34.92809 | -82.35262 | 6994 ft | 211 kts | 73° |
| 2026-05-07 00:16 | 34.93238 | -82.33550 | 6991 ft | 211 kts | 73° |
| 2026-05-07 00:16 | 34.93664 | -82.31838 | 6994 ft | 211 kts | 72° |
| 2026-05-07 00:16 | 34.94090 | -82.30130 | 7001 ft | 211 kts | 72° |
| 2026-05-07 00:17 | 34.94515 | -82.28426 | 7003 ft | 210 kts | 73° |
| 2026-05-07 00:17 | 34.94933 | -82.26746 | 6998 ft | 210 kts | 73° |
| 2026-05-07 00:17 | 34.95356 | -82.25046 | 6996 ft | 209 kts | 73° |
| 2026-05-07 00:17 | 34.95778 | -82.23351 | 7000 ft | 209 kts | 73° |
| 2026-05-07 00:18 | 34.96202 | -82.21648 | 7002 ft | 210 kts | 73° |
| 2026-05-07 00:18 | 34.96626 | -82.19942 | 7001 ft | 210 kts | 73° |
| 2026-05-07 00:18 | 34.97047 | -82.18243 | 7001 ft | 209 kts | 73° |
| 2026-05-07 00:18 | 34.97468 | -82.16545 | 6999 ft | 210 kts | 73° |
| 2026-05-07 00:19 | 34.97892 | -82.14840 | 6995 ft | 210 kts | 73° |
| 2026-05-07 00:19 | 34.98315 | -82.13130 | 6995 ft | 210 kts | 73° |
| 2026-05-07 00:19 | 34.98734 | -82.11433 | 6991 ft | 209 kts | 73° |
| 2026-05-07 00:19 | 34.99154 | -82.09735 | 6984 ft | 209 kts | 73° |
| 2026-05-07 00:20 | 34.99575 | -82.08037 | 6980 ft | 210 kts | 73° |
| 2026-05-07 00:20 | 34.99996 | -82.06337 | 6980 ft | 210 kts | 73° |
| 2026-05-07 00:20 | 35.00410 | -82.04656 | 6982 ft | 210 kts | 73° |
| 2026-05-07 00:20 | 35.00831 | -82.02949 | 6982 ft | 210 kts | 73° |
| 2026-05-07 00:21 | 35.01252 | -82.01241 | 6981 ft | 211 kts | 73° |
| 2026-05-07 00:21 | 35.01673 | -81.99532 | 6984 ft | 210 kts | 73° |
| 2026-05-07 00:21 | 35.02095 | -81.97819 | 6981 ft | 211 kts | 73° |
| 2026-05-07 00:21 | 35.02516 | -81.96108 | 6981 ft | 210 kts | 73° |
| 2026-05-07 00:22 | 35.02935 | -81.94405 | 6979 ft | 210 kts | 72° |
| 2026-05-07 00:22 | 35.03349 | -81.92707 | 6979 ft | 210 kts | 74° |
| 2026-05-07 00:22 | 35.03646 | -81.90954 | 6976 ft | 211 kts | 80° |
| 2026-05-07 00:22 | 35.03928 | -81.89199 | 6973 ft | 210 kts | 79° |
| 2026-05-07 00:23 | 35.04219 | -81.87457 | 6969 ft | 209 kts | 79° |
| 2026-05-07 00:23 | 35.04509 | -81.85710 | 6968 ft | 208 kts | 80° |
| 2026-05-07 00:23 | 35.04791 | -81.83990 | 6964 ft | 210 kts | 79° |
| 2026-05-07 00:23 | 35.05081 | -81.82234 | 6965 ft | 211 kts | 80° |
| 2026-05-07 00:24 | 35.05371 | -81.80480 | 6961 ft | 211 kts | 79° |
| 2026-05-07 00:24 | 35.05661 | -81.78708 | 6958 ft | 210 kts | 80° |
| 2026-05-07 00:24 | 35.05943 | -81.76983 | 6954 ft | 210 kts | 79° |
| 2026-05-07 00:24 | 35.06233 | -81.75218 | 6949 ft | 211 kts | 79° |
| 2026-05-07 00:25 | 35.06517 | -81.73487 | 6946 ft | 210 kts | 79° |
| 2026-05-07 00:25 | 35.06804 | -81.71738 | 6952 ft | 209 kts | 79° |
| 2026-05-07 00:25 | 35.07087 | -81.70011 | 6953 ft | 208 kts | 79° |
| 2026-05-07 00:25 | 35.07274 | -81.68863 | 6952 ft | 208 kts | 79° |
| 2026-05-07 00:26 | 35.07652 | -81.66545 | 6972 ft | 207 kts | 79° |
| 2026-05-07 00:26 | 35.07931 | -81.64835 | 6990 ft | 205 kts | 79° |
| 2026-05-07 00:26 | 35.08120 | -81.63679 | 6997 ft | 205 kts | 79° |
| 2026-05-07 00:26 | 35.08404 | -81.61944 | 6993 ft | 207 kts | 80° |
| 2026-05-07 00:27 | 35.08679 | -81.60242 | 6993 ft | 207 kts | 80° |
| 2026-05-07 00:27 | 35.08958 | -81.58518 | 6998 ft | 207 kts | 80° |
| 2026-05-07 00:27 | 35.09240 | -81.56788 | 6999 ft | 208 kts | 79° |
| 2026-05-07 00:27 | 35.09546 | -81.55057 | 6999 ft | 209 kts | 76° |
| 2026-05-07 00:28 | 35.09901 | -81.53331 | 6996 ft | 210 kts | 77° |
| 2026-05-07 00:28 | 35.10235 | -81.51599 | 6999 ft | 209 kts | 77° |
| 2026-05-07 00:28 | 35.10578 | -81.49870 | 6998 ft | 209 kts | 77° |
| 2026-05-07 00:28 | 35.10921 | -81.48149 | 6995 ft | 209 kts | 77° |
| 2026-05-07 00:29 | 35.11265 | -81.46425 | 6991 ft | 209 kts | 77° |
| 2026-05-07 00:29 | 35.11608 | -81.44700 | 6997 ft | 209 kts | 77° |
| 2026-05-07 00:30 | 35.12640 | -81.39498 | 6996 ft | 210 kts | 77° |
| 2026-05-07 00:30 | 35.12983 | -81.37763 | 6972 ft | 210 kts | 77° |
| 2026-05-07 00:30 | 35.13328 | -81.36029 | 6979 ft | 210 kts | 77° |
| 2026-05-07 00:30 | 35.13658 | -81.34295 | 6792 ft | 201 kts | 79° |
| 2026-05-07 00:31 | 35.13957 | -81.32706 | 6578 ft | 193 kts | 77° |
| 2026-05-07 00:31 | 35.14275 | -81.31138 | 6382 ft | 188 kts | 77° |
| 2026-05-07 00:31 | 35.14585 | -81.29600 | 6175 ft | 185 kts | 78° |
| 2026-05-07 00:31 | 35.14887 | -81.28081 | 5970 ft | 184 kts | 79° |
| 2026-05-07 00:32 | 35.15189 | -81.26547 | 5764 ft | 183 kts | 78° |
| 2026-05-07 00:32 | 35.15487 | -81.25042 | 5565 ft | 183 kts | 79° |
| 2026-05-07 00:32 | 35.15787 | -81.23520 | 5353 ft | 185 kts | 80° |
| 2026-05-07 00:32 | 35.16087 | -81.21991 | 5138 ft | 185 kts | 80° |
| 2026-05-07 00:33 | 35.16412 | -81.20400 | 4998 ft | 198 kts | 79° |
| 2026-05-07 00:33 | 35.16741 | -81.18762 | 5001 ft | 199 kts | 79° |
| 2026-05-07 00:33 | 35.17065 | -81.17084 | 5003 ft | 202 kts | 80° |
| 2026-05-07 00:33 | 35.17390 | -81.15408 | 4996 ft | 202 kts | 80° |
| 2026-05-07 00:34 | 35.17717 | -81.13735 | 4998 ft | 203 kts | 79° |
| 2026-05-07 00:34 | 35.18044 | -81.12065 | 4998 ft | 201 kts | 79° |
| 2026-05-07 00:34 | 35.18369 | -81.10395 | 4999 ft | 203 kts | 79° |
| 2026-05-07 00:34 | 35.18698 | -81.08719 | 4998 ft | 203 kts | 80° |
| 2026-05-07 00:35 | 35.19026 | -81.07036 | 5002 ft | 203 kts | 80° |
| 2026-05-07 00:35 | 35.19353 | -81.05359 | 4999 ft | 202 kts | 80° |
| 2026-05-07 00:35 | 35.19677 | -81.03687 | 4998 ft | 202 kts | 80° |
| 2026-05-07 00:35 | 35.20004 | -81.02015 | 4995 ft | 203 kts | 80° |
| 2026-05-07 00:36 | 35.20326 | -81.00356 | 4997 ft | 204 kts | 80° |
| 2026-05-07 00:36 | 35.20662 | -80.98647 | 4997 ft | 204 kts | 79° |
| 2026-05-07 00:36 | 35.20992 | -80.96955 | 4997 ft | 204 kts | 80° |
| 2026-05-07 00:36 | 35.21311 | -80.95300 | 4993 ft | 202 kts | 80° |
| 2026-05-07 00:37 | 35.21636 | -80.93607 | 4992 ft | 202 kts | 79° |
| 2026-05-07 00:37 | 35.21967 | -80.91943 | 4994 ft | 201 kts | 79° |
| 2026-05-07 00:37 | 35.22304 | -80.90264 | 4993 ft | 203 kts | 79° |
| 2026-05-07 00:37 | 35.22634 | -80.88601 | 4995 ft | 203 kts | 79° |
| 2026-05-07 00:38 | 35.22956 | -80.86923 | 4992 ft | 203 kts | 79° |
| 2026-05-07 00:38 | 35.23277 | -80.85241 | 4994 ft | 202 kts | 79° |
| 2026-05-07 00:38 | 35.23666 | -80.83585 | 4987 ft | 205 kts | 64° |
| 2026-05-07 00:38 | 35.24656 | -80.82365 | 4865 ft | 196 kts | 21° |
| 2026-05-07 00:39 | 35.25865 | -80.81795 | 4693 ft | 185 kts | 12° |
| 2026-05-07 00:39 | 35.27081 | -80.81259 | 4509 ft | 181 kts | 13° |
| 2026-05-07 00:39 | 35.28254 | -80.80756 | 4340 ft | 177 kts | 12° |
| 2026-05-07 00:39 | 35.29408 | -80.80251 | 4160 ft | 175 kts | 12° |
| 2026-05-07 00:40 | 35.30542 | -80.79763 | 3989 ft | 175 kts | 12° |
| 2026-05-07 00:40 | 35.31693 | -80.79279 | 3819 ft | 174 kts | 12° |
| 2026-05-07 00:40 | 35.32831 | -80.78793 | 3649 ft | 171 kts | 12° |
| 2026-05-07 00:40 | 35.33955 | -80.78316 | 3471 ft | 171 kts | 12° |
| 2026-05-07 00:41 | 35.35079 | -80.77831 | 3306 ft | 172 kts | 12° |
| 2026-05-07 00:41 | 35.36199 | -80.77355 | 3135 ft | 170 kts | 12° |
| 2026-05-07 00:41 | 35.37322 | -80.76913 | 3007 ft | 166 kts | 12° |
| 2026-05-07 00:41 | 35.38403 | -80.76490 | 3001 ft | 162 kts | 10° |
| 2026-05-07 00:42 | 35.39453 | -80.76038 | 2992 ft | 158 kts | 12° |
| 2026-05-07 00:42 | 35.40462 | -80.75592 | 2988 ft | 149 kts | 12° |
| 2026-05-07 00:42 | 35.41429 | -80.75177 | 2990 ft | 147 kts | 11° |
| 2026-05-07 00:42 | 35.42391 | -80.74753 | 2991 ft | 146 kts | 11° |
| 2026-05-07 00:43 | 35.43356 | -80.74320 | 2994 ft | 151 kts | 12° |
| 2026-05-07 00:43 | 35.44351 | -80.73877 | 2994 ft | 152 kts | 12° |
| 2026-05-07 00:43 | 35.45350 | -80.73427 | 3021 ft | 153 kts | 12° |
| 2026-05-07 00:43 | 35.46328 | -80.72959 | 3022 ft | 149 kts | 12° |
| 2026-05-07 00:44 | 35.47281 | -80.72498 | 3020 ft | 147 kts | 13° |
| 2026-05-07 00:44 | 35.48225 | -80.72063 | 3013 ft | 147 kts | 11° |
| 2026-05-07 00:44 | 35.49192 | -80.71633 | 3013 ft | 149 kts | 12° |
| 2026-05-07 00:44 | 35.50165 | -80.71193 | 3016 ft | 151 kts | 11° |
| 2026-05-07 00:45 | 35.51155 | -80.70721 | 3017 ft | 154 kts | 11° |
| 2026-05-07 00:45 | 35.52156 | -80.70240 | 3021 ft | 155 kts | 12° |
| 2026-05-07 00:45 | 35.53161 | -80.69779 | 3019 ft | 154 kts | 11° |
| 2026-05-07 00:45 | 35.54175 | -80.69324 | 3016 ft | 157 kts | 12° |
| 2026-05-07 00:46 | 35.55206 | -80.68858 | 3013 ft | 159 kts | 11° |
| 2026-05-07 00:46 | 35.56241 | -80.68384 | 3004 ft | 158 kts | 12° |
| 2026-05-07 00:46 | 35.57264 | -80.67921 | 3004 ft | 156 kts | 12° |
| 2026-05-07 00:46 | 35.58279 | -80.67464 | 3003 ft | 155 kts | 11° |
| 2026-05-07 00:47 | 35.59287 | -80.67001 | 3001 ft | 153 kts | 8° |
| 2026-05-07 00:47 | 35.60122 | -80.66152 | 2985 ft | 167 kts | 61° |
| 2026-05-07 00:47 | 35.60104 | -80.64849 | 2900 ft | 147 kts | 143° |
| 2026-05-07 00:47 | 35.59413 | -80.64837 | 2951 ft | 95 kts | 236° |
| 2026-05-07 00:48 | 35.59131 | -80.65505 | 3108 ft | 84 kts | 239° |
| 2026-05-07 00:48 | 35.58713 | -80.66000 | 3163 ft | 89 kts | 217° |
| 2026-05-07 00:48 | 35.58118 | -80.66331 | 3099 ft | 100 kts | 211° |
| 2026-05-07 00:48 | 35.57433 | -80.66647 | 3014 ft | 110 kts | 202° |
| 2026-05-07 00:49 | 35.56677 | -80.66750 | 3053 ft | 108 kts | 194° |
| 2026-05-07 00:49 | 35.55920 | -80.66878 | 3030 ft | 105 kts | 199° |
| 2026-05-07 00:49 | 35.55227 | -80.67018 | 3040 ft | 102 kts | 202° |
| 2026-05-07 00:49 | 35.54572 | -80.67244 | 3080 ft | 98 kts | 203° |
| 2026-05-07 00:50 | 35.53878 | -80.67434 | 3049 ft | 105 kts | 200° |
| 2026-05-07 00:50 | 35.53135 | -80.67550 | 3055 ft | 108 kts | 198° |
| 2026-05-07 00:50 | 35.52388 | -80.67688 | 3021 ft | 109 kts | 199° |
| 2026-05-07 00:50 | 35.51670 | -80.67865 | 3016 ft | 105 kts | 202° |
| 2026-05-07 00:51 | 35.50968 | -80.68072 | 3015 ft | 103 kts | 203° |
| 2026-05-07 00:51 | 35.50274 | -80.68271 | 3012 ft | 102 kts | 204° |
| 2026-05-07 00:51 | 35.49581 | -80.68458 | 3012 ft | 102 kts | 203° |
| 2026-05-07 00:51 | 35.48901 | -80.68655 | 2987 ft | 97 kts | 204° |
| 2026-05-07 00:52 | 35.48229 | -80.68768 | 2893 ft | 98 kts | 199° |
| 2026-05-07 00:52 | 35.47569 | -80.68913 | 2831 ft | 93 kts | 202° |
| 2026-05-07 00:52 | 35.46948 | -80.69077 | 2680 ft | 90 kts | 201° |
| 2026-05-07 00:52 | 35.46342 | -80.69203 | 2532 ft | 80 kts | 201° |
| 2026-05-07 00:53 | 35.45811 | -80.69312 | 2269 ft | 79 kts | 200° |
| 2026-05-07 00:53 | 35.45274 | -80.69408 | 2121 ft | 77 kts | 206° |
| 2026-05-07 00:53 | 35.44768 | -80.69533 | 2050 ft | 72 kts | 202° |
| 2026-05-07 00:53 | 35.44268 | -80.69674 | 1917 ft | 74 kts | 199° |
| 2026-05-07 00:54 | 35.43747 | -80.69780 | 1829 ft | 78 kts | 198° |
| 2026-05-07 00:54 | 35.43210 | -80.69896 | 1752 ft | 79 kts | 193° |
| 2026-05-07 00:54 | 35.42641 | -80.69991 | 1592 ft | 82 kts | 199° |
| 2026-05-07 00:54 | 35.42097 | -80.70151 | 1381 ft | 83 kts | 193° |
| 2026-05-07 00:55 | 35.41516 | -80.70285 | 1242 ft | 86 kts | 191° |
| 2026-05-07 00:55 | 35.40940 | -80.70422 | 1110 ft | 84 kts | 192° |
| 2026-05-07 00:55 | 35.40390 | -80.70550 | 991 ft | 80 kts | 190° |
| 2026-05-07 00:55 | 35.39845 | -80.70672 | 826 ft | 76 kts | 187° |
| 2026-05-07 00:56 | 35.39331 | -80.70784 | 702 ft | 71 kts | 192° |
| 2026-05-07 00:56 | 35.38938 | -80.70876 | 682 ft | 34 kts | 189° |
| 2026-05-07 00:56 | 35.38907 | -80.70987 | 680 ft | 16 kts | 277° |
| 2026-05-07 00:56 | 35.38905 | -80.71018 | 680 ft | 0 kts | 216° |
| 2026-05-07 00:58 | 35.38900 | -80.71022 | 680 ft | 4 kts | 202° |
| 2026-05-07 00:58 | 35.38837 | -80.71038 | 678 ft | 17 kts | 193° |
| 2026-05-07 00:59 | 35.38688 | -80.71178 | 673 ft | 16 kts | 209° |
| 2026-05-07 00:59 | 35.38643 | -80.71200 | 671 ft | 0 kts | 195° |